Time;durP1;ratioP1;P1;durP2;ratioP2;P2;SDS_P1;SDS_P2;PMS_P1;PMS_P2;Temp;Humidity;BMP_temperature;BMP_pressure;BME280_temperature;BME280_humidity;BME280_pressure;Samples;Min_cycle;Max_cycle;Signal;HPM_P1;HPM_P2
2024/01/08 00:00:29;;;;;;;18.50;5.70;;;;;;;-7.56;98.58;101361.48;109087;1259;58920;-62
2024/01/08 00:03:38;;;;;;;14.40;4.90;;;;;;;-7.55;98.57;101360.80;109089;1259;76363;-62
2024/01/08 00:06:27;;;;;;;10.90;4.30;;;;;;;-7.57;98.88;101362.31;109066;1259;65470;-62
2024/01/08 00:09:15;;;;;;;12.90;4.60;;;;;;;-7.63;98.14;101363.25;108981;1260;72375;-64
2024/01/08 00:12:03;;;;;;;11.90;5.10;;;;;;;-7.63;98.46;101371.00;108317;1258;1002324;-64
2024/01/08 00:14:51;;;;;;;15.30;5.30;;;;;;;-7.69;97.80;101370.39;109080;1259;60050;-63
2024/01/08 00:17:38;;;;;;;14.80;4.60;;;;;;;-7.70;97.53;101376.23;109086;1260;74605;-63
2024/01/08 00:20:26;;;;;;;16.70;5.90;;;;;;;-7.67;98.04;101374.55;109105;1259;69060;-62
2024/01/08 00:23:14;;;;;;;13.50;4.90;;;;;;;-7.69;97.12;101384.01;108876;1259;73643;-62
2024/01/08 00:26:02;;;;;;;12.70;4.20;;;;;;;-7.71;97.67;101387.25;108969;1259;59916;-64
2024/01/08 00:28:50;;;;;;;16.90;5.40;;;;;;;-7.71;97.64;101389.32;109109;1259;60230;-63
2024/01/08 00:31:38;;;;;;;9.50;3.40;;;;;;;-7.68;98.00;101390.05;108999;1260;74848;-63
2024/01/08 00:34:27;;;;;;;11.40;4.00;;;;;;;-7.69;97.27;101388.47;108952;1260;67769;-63
2024/01/08 00:37:15;;;;;;;11.20;3.90;;;;;;;-7.73;97.47;101393.05;108997;1259;72853;-65
2024/01/08 00:40:04;;;;;;;12.00;4.30;;;;;;;-7.73;98.25;101397.54;108151;1260;1002794;-63
2024/01/08 00:42:52;;;;;;;11.70;3.70;;;;;;;-7.74;97.83;101391.16;109108;1260;58902;-64
2024/01/08 00:45:41;;;;;;;12.40;3.80;;;;;;;-7.71;98.04;101394.65;108998;1260;73546;-62
2024/01/08 00:48:29;;;;;;;13.10;4.20;;;;;;;-7.73;98.15;101392.88;109008;1259;68120;-64
2024/01/08 00:51:17;;;;;;;8.40;2.60;;;;;;;-7.67;97.62;101401.27;109049;1259;70239;-64
2024/01/08 00:54:05;;;;;;;9.50;3.30;;;;;;;-7.64;98.06;101401.52;108974;1260;58090;-63
2024/01/08 00:56:52;;;;;;;10.80;4.00;;;;;;;-7.59;97.88;101398.31;109077;1260;58805;-64
2024/01/08 00:59:40;;;;;;;12.20;3.60;;;;;;;-7.56;98.46;101400.63;109068;1260;71559;-63
2024/01/08 01:02:29;;;;;;;8.20;3.10;;;;;;;-7.55;98.23;101404.41;108998;1260;67901;-63
2024/01/08 01:05:16;;;;;;;11.60;4.60;;;;;;;-7.59;97.45;101409.17;108359;1259;1002141;-62
2024/01/08 01:08:04;;;;;;;10.60;4.10;;;;;;;-7.64;97.69;101413.56;108303;1260;1002258;-64
2024/01/08 01:10:52;;;;;;;12.20;4.60;;;;;;;-7.67;97.57;101414.37;109094;1259;60139;-64
2024/01/08 01:13:40;;;;;;;12.50;4.40;;;;;;;-7.69;97.54;101416.06;108257;1259;1002640;-64
2024/01/08 01:16:29;;;;;;;9.00;3.40;;;;;;;-7.67;98.42;101415.91;109114;1259;67931;-63
2024/01/08 01:19:17;;;;;;;11.50;3.70;;;;;;;-7.63;98.65;101416.67;109048;1259;73445;-63
2024/01/08 01:22:09;;;;;;;7.60;2.30;;;;;;;-7.62;98.59;101419.63;109031;1259;58083;-63
2024/01/08 01:24:57;;;;;;;9.60;4.00;;;;;;;-7.64;98.47;101426.49;109002;1259;61291;-62
2024/01/08 01:27:45;;;;;;;8.60;3.10;;;;;;;-7.67;98.65;101431.09;109019;1259;75184;-63
2024/01/08 01:30:33;;;;;;;10.00;3.40;;;;;;;-7.71;99.15;101429.29;109064;1260;66362;-63
2024/01/08 01:33:20;;;;;;;13.60;4.20;;;;;;;-7.75;98.52;101424.90;109070;1260;70694;-63
2024/01/08 01:36:08;;;;;;;8.20;2.70;;;;;;;-7.74;98.80;101430.95;109072;1259;58519;-64
2024/01/08 01:38:56;;;;;;;10.90;4.00;;;;;;;-7.78;98.98;101433.13;109067;1259;59027;-63
2024/01/08 01:41:44;;;;;;;13.10;4.50;;;;;;;-7.78;98.87;101431.23;109002;1260;73604;-64
2024/01/08 01:44:32;;;;;;;10.50;3.40;;;;;;;-7.74;99.42;101427.69;108999;1260;66659;-63
2024/01/08 01:47:23;;;;;;;11.10;3.80;;;;;;;-7.74;98.95;101432.68;109052;1260;71719;-64
2024/01/08 01:50:11;;;;;;;10.20;3.90;;;;;;;-7.77;99.05;101439.70;108211;1259;1002848;-65
2024/01/08 01:52:59;;;;;;;12.00;5.00;;;;;;;-7.81;98.28;101444.63;108976;1259;61477;-64
2024/01/08 01:55:48;;;;;;;9.00;2.90;;;;;;;-7.82;97.81;101448.38;108313;1259;1002916;-64
2024/01/08 01:58:36;;;;;;;10.90;4.00;;;;;;;-7.81;97.97;101454.27;109007;1260;67938;-63
2024/01/08 02:01:24;;;;;;;12.30;4.10;;;;;;;-7.80;97.48;101453.08;108994;1260;73534;-62
2024/01/08 02:04:14;;;;;;;11.30;3.90;;;;;;;-7.80;97.47;101458.59;108962;1260;58104;-63
2024/01/08 02:07:04;;;;;;;12.60;4.20;;;;;;;-7.87;97.32;101460.33;109089;1261;60057;-63
2024/01/08 02:09:52;;;;;;;10.80;4.20;;;;;;;-7.91;97.33;101463.36;109063;1260;72510;-63
2024/01/08 02:12:40;;;;;;;9.30;3.30;;;;;;;-7.95;96.77;101463.11;109072;1260;66776;-62
2024/01/08 02:15:27;;;;;;;10.40;3.90;;;;;;;-8.01;96.65;101467.81;108962;1259;74116;-63
2024/01/08 02:18:15;;;;;;;12.10;4.10;;;;;;;-8.08;96.57;101466.30;109006;1260;58145;-61
2024/01/08 02:21:03;;;;;;;11.30;3.40;;;;;;;-8.10;96.41;101468.84;109004;1260;58767;-62
2024/01/08 02:23:51;;;;;;;10.40;3.60;;;;;;;-8.13;96.37;101476.52;108319;1260;1002304;-63
2024/01/08 02:26:39;;;;;;;10.30;3.60;;;;;;;-8.17;96.45;101473.00;109019;1259;67871;-63
2024/01/08 02:29:28;;;;;;;11.10;4.00;;;;;;;-8.24;95.85;101473.17;109063;1260;73760;-63
2024/01/08 02:32:16;;;;;;;11.40;4.00;;;;;;;-8.29;96.12;101471.68;108280;1259;1002297;-63
2024/01/08 02:35:04;;;;;;;6.70;2.30;;;;;;;-8.38;95.93;101476.16;109070;1260;58683;-64
2024/01/08 02:37:52;;;;;;;10.50;3.80;;;;;;;-8.46;95.61;101483.40;108222;1260;1002894;-64
2024/01/08 02:40:43;;;;;;;9.60;2.80;;;;;;;-8.53;95.74;101483.55;108989;1260;67749;-64
2024/01/08 02:43:32;;;;;;;9.30;3.70;;;;;;;-8.60;95.34;101489.29;108130;1263;1002698;-64
2024/01/08 02:46:21;;;;;;;8.90;3.10;;;;;;;-8.65;95.29;101487.27;108950;1260;59991;-64
2024/01/08 02:49:09;;;;;;;9.70;3.10;;;;;;;-8.72;94.64;101491.92;109088;1260;59090;-63
2024/01/08 02:51:57;;;;;;;9.60;3.20;;;;;;;-8.78;93.96;101488.33;109089;1260;73610;-65
2024/01/08 02:54:45;;;;;;;10.20;4.00;;;;;;;-8.89;93.97;101477.92;109073;1260;66451;-64
2024/01/08 02:57:33;;;;;;;10.10;3.10;;;;;;;-8.88;93.46;101482.77;109063;1259;72341;-64
2024/01/08 03:00:21;;;;;;;11.20;3.20;;;;;;;-8.92;93.15;101489.02;108303;1259;1002301;-64
2024/01/08 03:03:08;;;;;;;10.10;3.00;;;;;;;-8.95;92.63;101488.95;109054;1259;60111;-63
2024/01/08 03:05:56;;;;;;;9.40;3.60;;;;;;;-8.98;92.25;101482.52;108243;1263;1002397;-64
2024/01/08 03:08:44;;;;;;;7.90;2.40;;;;;;;-9.00;91.62;101481.08;108990;1260;65507;-66
2024/01/08 03:11:32;;;;;;;7.80;2.20;;;;;;;-9.02;90.87;101478.98;108214;1259;1002385;-62
2024/01/08 03:14:21;;;;;;;7.70;2.90;;;;;;;-9.03;90.53;101481.17;108266;1259;1002632;-62
2024/01/08 03:17:09;;;;;;;9.90;2.60;;;;;;;-9.03;90.68;101483.59;108964;1259;59970;-62
2024/01/08 03:19:57;;;;;;;8.70;2.50;;;;;;;-9.07;89.44;101479.73;108244;1259;1002692;-62
2024/01/08 03:22:45;;;;;;;8.40;2.80;;;;;;;-9.08;89.34;101483.30;108251;1259;1002971;-62
2024/01/08 03:25:32;;;;;;;8.60;2.40;;;;;;;-9.09;89.26;101487.77;108997;1260;73579;-62
2024/01/08 03:28:20;;;;;;;7.90;2.50;;;;;;;-9.08;89.19;101487.10;108966;1258;58126;-62
2024/01/08 03:31:08;;;;;;;9.60;2.80;;;;;;;-9.14;88.70;101482.63;108921;1260;60411;-62
2024/01/08 03:33:55;;;;;;;6.80;1.80;;;;;;;-9.10;88.11;101490.64;109039;1259;72305;-63
2024/01/08 03:36:45;;;;;;;9.30;2.10;;;;;;;-9.11;87.40;101488.20;109063;1260;67939;-62
2024/01/08 03:39:33;;;;;;;7.60;1.90;;;;;;;-9.14;87.53;101490.71;109038;1259;72168;-61
2024/01/08 03:42:21;;;;;;;9.40;2.50;;;;;;;-9.16;87.80;101487.74;108281;1260;1002512;-63
2024/01/08 03:45:09;;;;;;;9.50;2.50;;;;;;;-9.17;87.87;101491.67;108987;1259;61095;-65
2024/01/08 03:47:56;;;;;;;8.30;2.10;;;;;;;-9.16;88.51;101495.14;109010;1260;73105;-63
2024/01/08 03:50:44;;;;;;;7.10;1.60;;;;;;;-9.16;89.45;101499.26;109075;1259;67134;-64
2024/01/08 03:53:32;;;;;;;7.60;2.30;;;;;;;-9.15;89.60;101500.30;108203;1262;1002064;-64
2024/01/08 03:56:19;;;;;;;6.60;2.20;;;;;;;-9.15;89.77;101500.31;109038;1260;59697;-63
2024/01/08 03:59:12;;;;;;;7.20;2.00;;;;;;;-9.14;90.31;101500.15;109053;1260;61165;-65
2024/01/08 04:02:00;;;;;;;7.40;2.00;;;;;;;-9.14;90.44;101501.73;109072;1259;74560;-66
2024/01/08 04:04:48;;;;;;;6.40;1.60;;;;;;;-9.14;90.59;101498.45;108925;1259;67587;-63
2024/01/08 04:07:36;;;;;;;8.80;2.20;;;;;;;-9.14;91.27;101504.30;108923;1263;72611;-63
2024/01/08 04:10:24;;;;;;;9.20;2.10;;;;;;;-9.12;91.34;101495.40;108798;1259;343880;-64
2024/01/08 04:13:11;;;;;;;7.80;2.10;;;;;;;-9.11;91.00;101501.81;108970;1260;61100;-64
2024/01/08 04:15:59;;;;;;;7.00;2.00;;;;;;;-9.10;91.27;101502.16;108979;1260;73920;-63
2024/01/08 04:18:46;;;;;;;7.50;2.10;;;;;;;-9.10;91.10;101498.56;109067;1260;67666;-63
2024/01/08 04:21:34;;;;;;;7.80;2.10;;;;;;;-9.13;91.44;101494.69;109039;1260;70331;-62
2024/01/08 04:24:22;;;;;;;7.20;2.10;;;;;;;-9.07;91.86;101508.79;109049;1263;58103;-63
2024/01/08 04:27:10;;;;;;;7.20;2.00;;;;;;;-9.07;91.76;101513.10;109041;1260;61348;-63
2024/01/08 04:29:58;;;;;;;8.90;2.40;;;;;;;-9.05;92.25;101509.52;109064;1260;73631;-63
2024/01/08 04:32:45;;;;;;;8.40;2.20;;;;;;;-9.03;92.27;101514.38;108991;1260;67650;-63
2024/01/08 04:35:33;;;;;;;7.70;2.40;;;;;;;-9.02;92.83;101516.98;109067;1259;73761;-63
2024/01/08 04:38:21;;;;;;;8.50;2.40;;;;;;;-9.01;92.88;101519.06;109048;1260;58473;-63
2024/01/08 04:41:09;;;;;;;9.40;2.50;;;;;;;-9.01;93.22;101518.40;109102;1259;60131;-62
2024/01/08 04:43:56;;;;;;;9.00;2.40;;;;;;;-8.99;93.61;101523.08;109110;1260;75219;-63
2024/01/08 04:46:45;;;;;;;8.00;2.20;;;;;;;-8.98;93.47;101529.64;108945;1258;68812;-63
2024/01/08 04:49:33;;;;;;;8.70;2.70;;;;;;;-8.98;93.99;101540.31;108315;1261;1002572;-63
2024/01/08 04:52:20;;;;;;;8.80;2.50;;;;;;;-9.01;94.33;101530.25;108285;1259;1002199;-63
2024/01/08 04:55:08;;;;;;;9.10;2.50;;;;;;;-9.01;94.71;101529.90;109013;1261;60079;-64
2024/01/08 04:57:57;;;;;;;8.80;2.00;;;;;;;-8.95;95.03;101535.06;109070;1260;71588;-62
2024/01/08 05:00:44;;;;;;;9.60;2.70;;;;;;;-8.94;95.36;101539.73;109028;1260;68949;-64
2024/01/08 05:03:33;;;;;;;8.10;2.50;;;;;;;-8.94;95.63;101544.37;108288;1260;1002522;-64
2024/01/08 05:06:20;;;;;;;7.50;2.00;;;;;;;-8.94;95.56;101543.51;109051;1261;58087;-62
2024/01/08 05:09:11;;;;;;;10.40;2.50;;;;;;;-8.94;95.15;101552.30;108166;1264;1002410;-63
2024/01/08 05:11:59;;;;;;;8.40;2.50;;;;;;;-8.93;95.52;101555.58;108327;1260;1002358;-63
2024/01/08 05:14:47;;;;;;;9.60;2.50;;;;;;;-8.91;95.45;101559.05;108159;1260;1003060;-62
2024/01/08 05:17:35;;;;;;;10.20;2.90;;;;;;;-8.89;95.53;101562.55;109008;1260;73735;-62
2024/01/08 05:20:23;;;;;;;9.40;2.60;;;;;;;-8.86;95.63;101569.15;108826;1259;58972;-62
2024/01/08 05:23:11;;;;;;;10.30;2.90;;;;;;;-8.86;95.76;101570.73;108999;1260;60302;-59
2024/01/08 05:26:00;;;;;;;8.60;2.30;;;;;;;-8.87;95.92;101575.52;108906;1260;73938;-62
2024/01/08 05:28:48;;;;;;;8.50;2.40;;;;;;;-8.88;96.18;101578.57;108917;1261;67930;-63
2024/01/08 05:31:36;;;;;;;7.80;2.50;;;;;;;-8.89;95.96;101572.71;109021;1259;73896;-61
2024/01/08 05:34:24;;;;;;;9.00;2.50;;;;;;;-8.90;95.99;101575.79;108953;1261;58060;-62
2024/01/08 05:37:12;;;;;;;8.20;2.20;;;;;;;-8.92;96.43;101573.82;108967;1260;59391;-62
2024/01/08 05:40:00;;;;;;;7.40;2.40;;;;;;;-8.89;96.64;101582.34;109099;1260;72566;-63
2024/01/08 05:42:49;;;;;;;7.50;1.90;;;;;;;-8.88;96.87;101588.38;109108;1259;67896;-64
2024/01/08 05:45:37;;;;;;;8.50;2.00;;;;;;;-8.87;96.99;101593.92;108903;1260;72333;-63
2024/01/08 05:48:24;;;;;;;7.80;2.30;;;;;;;-8.87;96.70;101600.98;108155;1260;1002463;-62
2024/01/08 05:51:13;;;;;;;8.20;1.80;;;;;;;-8.87;96.55;101609.56;108179;1261;1002543;-62
2024/01/08 05:54:01;;;;;;;8.70;2.40;;;;;;;-8.88;96.67;101618.48;108992;1260;73331;-62
2024/01/08 05:56:48;;;;;;;8.10;2.20;;;;;;;-8.87;96.80;101612.48;108960;1259;67862;-64
2024/01/08 05:59:36;;;;;;;8.10;2.20;;;;;;;-8.86;96.57;101624.57;108926;1261;72214;-61
2024/01/08 06:02:28;;;;;;;7.60;2.30;;;;;;;-8.86;96.71;101625.77;108252;1260;1002164;-64
2024/01/08 06:05:16;;;;;;;7.40;2.10;;;;;;;-8.87;96.90;101619.89;108271;1259;1002635;-64
2024/01/08 06:08:05;;;;;;;8.00;2.30;;;;;;;-8.89;96.85;101627.06;108871;1259;73555;-63
2024/01/08 06:10:52;;;;;;;8.40;2.40;;;;;;;-8.89;96.86;101623.64;108929;1260;69170;-63
2024/01/08 06:13:40;;;;;;;9.30;2.40;;;;;;;-8.90;96.44;101631.36;108962;1260;72125;-63
2024/01/08 06:16:30;;;;;;;7.80;1.80;;;;;;;-8.90;96.59;101638.76;109011;1259;58173;-63
2024/01/08 06:19:19;;;;;;;7.70;2.20;;;;;;;-8.91;96.81;101632.71;108836;1258;58999;-64
2024/01/08 06:22:07;;;;;;;7.30;2.20;;;;;;;-8.90;96.99;101638.08;108892;1260;73943;-63
2024/01/08 06:24:54;;;;;;;10.10;2.40;;;;;;;-8.89;96.87;101648.77;108967;1259;67937;-61
2024/01/08 06:27:42;;;;;;;8.70;2.30;;;;;;;-8.88;96.97;101648.10;108837;1259;71131;-64
2024/01/08 06:30:29;;;;;;;10.10;2.80;;;;;;;-8.86;96.55;101648.30;108975;1259;58164;-62
2024/01/08 06:33:18;;;;;;;14.50;3.60;;;;;;;-8.83;97.13;101651.13;108937;1258;61583;-63
2024/01/08 06:36:06;;;;;;;8.40;2.70;;;;;;;-8.84;96.71;101655.79;108913;1260;73038;-62
2024/01/08 06:38:54;;;;;;;9.80;2.30;;;;;;;-8.83;96.75;101664.07;108877;1260;66724;-63
2024/01/08 06:41:41;;;;;;;8.00;2.20;;;;;;;-8.83;96.91;101664.05;108269;1260;1002927;-62
2024/01/08 06:44:29;;;;;;;9.20;2.50;;;;;;;-8.83;97.23;101669.23;108242;1260;1002217;-62
2024/01/08 06:47:17;;;;;;;7.30;2.30;;;;;;;-8.82;97.01;101678.38;108188;1259;1015356;-63
2024/01/08 06:50:05;;;;;;;10.00;2.20;;;;;;;-8.82;97.06;101688.00;109035;1259;73734;-64
2024/01/08 06:52:53;;;;;;;8.30;2.50;;;;;;;-8.81;97.16;101687.52;108977;1260;67691;-62
2024/01/08 06:55:41;;;;;;;7.70;2.00;;;;;;;-8.76;97.95;101686.45;108927;1260;71568;-64
2024/01/08 06:58:29;;;;;;;7.30;2.50;;;;;;;-8.74;97.44;101681.68;109048;1259;58565;-64
2024/01/08 07:01:17;;;;;;;8.60;2.30;;;;;;;-8.73;97.37;101689.63;108276;1260;1002068;-62
2024/01/08 07:04:05;;;;;;;7.70;2.20;;;;;;;-8.71;97.55;101692.77;108960;1259;74539;-63
2024/01/08 07:06:54;;;;;;;8.80;2.80;;;;;;;-8.71;97.22;101698.46;108873;1260;67883;-62
2024/01/08 07:09:41;;;;;;;9.90;2.40;;;;;;;-8.69;97.40;101700.23;108242;1259;1002408;-61
2024/01/08 07:12:29;;;;;;;8.40;2.20;;;;;;;-8.68;97.61;101704.20;108186;1260;1002432;-63
2024/01/08 07:15:36;;;;;;;8.20;2.50;;;;;;;-8.66;97.55;101712.17;108119;1260;1002249;-63
2024/01/08 07:18:24;;;;;;;12.60;3.40;;;;;;;-8.65;97.72;101716.16;108992;1260;72285;-63
2024/01/08 07:21:16;;;;;;;8.90;2.80;;;;;;;-8.63;97.57;101715.39;108924;1260;67695;-62
2024/01/08 07:24:06;;;;;;;8.70;2.70;;;;;;;-8.58;98.08;101719.14;108168;1260;1002994;-64
2024/01/08 07:26:54;;;;;;;9.40;2.50;;;;;;;-8.51;98.16;101728.77;108904;1259;58190;-67
2024/01/08 07:29:42;;;;;;;8.60;2.50;;;;;;;-8.46;97.57;101729.27;109062;1259;59154;-62
2024/01/08 07:32:30;;;;;;;10.10;3.00;;;;;;;-8.40;97.21;101727.65;108207;1260;1002415;-64
2024/01/08 07:35:18;;;;;;;9.30;2.90;;;;;;;-8.34;97.81;101731.61;109080;1259;66676;-63
2024/01/08 07:38:06;;;;;;;12.30;4.00;;;;;;;-8.25;97.50;101728.41;108975;1259;73683;-63
2024/01/08 07:40:53;;;;;;;9.30;3.00;;;;;;;-8.15;97.39;101732.78;109052;1259;58086;-62
2024/01/08 07:43:41;;;;;;;9.90;3.20;;;;;;;-8.11;97.19;101737.35;108932;1260;59951;-63
2024/01/08 07:46:29;;;;;;;8.20;2.90;;;;;;;-7.96;97.29;101737.58;108969;1260;73567;-62
2024/01/08 07:49:16;;;;;;;8.10;2.60;;;;;;;-7.88;96.53;101738.98;108198;1259;1002258;-63
2024/01/08 07:52:05;;;;;;;9.50;3.20;;;;;;;-7.84;95.88;101745.27;109024;1259;70446;-62
2024/01/08 07:54:52;;;;;;;11.90;3.90;;;;;;;-7.79;95.66;101747.12;108268;1259;1002220;-64
2024/01/08 07:57:40;;;;;;;10.40;3.80;;;;;;;-7.71;95.52;101747.65;109065;1259;60100;-64
2024/01/08 08:00:28;;;;;;;9.10;3.20;;;;;;;-7.62;95.22;101755.80;108958;1259;73495;-63
2024/01/08 08:03:16;;;;;;;8.90;2.90;;;;;;;-7.57;94.53;101757.30;109041;1260;68648;-63
2024/01/08 08:06:04;;;;;;;8.50;2.90;;;;;;;-7.53;94.41;101766.36;109038;1260;72542;-63
2024/01/08 08:08:53;;;;;;;7.50;2.80;;;;;;;-7.47;94.46;101771.16;108950;1259;59125;-63
2024/01/08 08:11:41;;;;;;;8.60;2.90;;;;;;;-7.42;93.76;101776.10;108995;1260;60183;-62
2024/01/08 08:14:28;;;;;;;8.60;2.40;;;;;;;-7.37;93.72;101773.80;108984;1260;72737;-64
2024/01/08 08:17:16;;;;;;;8.30;2.90;;;;;;;-7.23;93.79;101787.06;108911;1258;67651;-63
2024/01/08 08:20:05;;;;;;;9.50;3.60;;;;;;;-7.12;93.45;101776.79;107345;1259;1003000;-62
2024/01/08 08:22:53;;;;;;;10.30;4.40;;;;;;;-6.94;93.70;101776.66;108949;1259;59739;-63
2024/01/08 08:25:42;;;;;;;11.20;3.90;;;;;;;-6.76;92.97;101779.11;109048;1259;60064;-62
2024/01/08 08:28:30;;;;;;;11.30;3.90;;;;;;;-6.51;91.95;101776.70;108710;1263;74595;-66
2024/01/08 08:31:18;;;;;;;9.50;3.40;;;;;;;-6.31;91.64;101779.49;108746;1263;68733;-63
2024/01/08 08:34:05;;;;;;;11.30;3.90;;;;;;;-5.76;91.43;101776.11;108711;1264;72396;-63
2024/01/08 08:36:56;;;;;;;10.40;3.80;;;;;;;-3.95;87.67;101765.30;108664;1264;58887;-64
2024/01/08 08:39:43;;;;;;;11.70;4.70;;;;;;;-2.28;82.16;101760.90;108751;1263;58682;-62
2024/01/08 08:42:31;;;;;;;10.90;4.20;;;;;;;-2.42;74.73;101758.97;107919;1263;1003066;-65
2024/01/08 08:45:19;;;;;;;9.50;3.50;;;;;;;-3.12;74.01;101767.52;107995;1263;1003049;-62
2024/01/08 08:48:09;;;;;;;11.00;4.50;;;;;;;-3.68;75.37;101773.52;108717;1262;72354;-64
2024/01/08 08:50:57;;;;;;;10.50;4.10;;;;;;;-3.97;76.62;101777.79;108666;1262;58303;-64
2024/01/08 08:53:44;;;;;;;11.90;4.20;;;;;;;-4.19;77.19;101787.44;108813;1262;59031;-63
2024/01/08 08:56:34;;;;;;;10.00;3.30;;;;;;;-4.44;77.49;101785.44;108811;1262;73868;-65
2024/01/08 08:59:21;;;;;;;10.60;4.20;;;;;;;-4.45;78.96;101791.84;108884;1259;66658;-63
2024/01/08 09:02:10;;;;;;;10.60;4.20;;;;;;;-3.92;78.72;101796.56;108277;1259;1002404;-63
2024/01/08 09:04:58;;;;;;;11.40;4.60;;;;;;;-3.91;77.49;101790.50;109076;1259;61094;-63
2024/01/08 09:07:45;;;;;;;11.00;4.20;;;;;;;-4.14;77.37;101794.61;109051;1259;60309;-64
2024/01/08 09:10:33;;;;;;;10.80;4.40;;;;;;;-4.28;77.64;101798.11;108308;1259;1002162;-63
2024/01/08 09:13:21;;;;;;;12.90;4.90;;;;;;;-4.50;78.15;101799.58;108199;1259;1002355;-62
2024/01/08 09:16:14;;;;;;;11.80;5.00;;;;;;;-4.67;78.71;101810.45;108211;1258;1002294;-63
2024/01/08 09:19:01;;;;;;;12.30;4.80;;;;;;;-4.76;79.39;101807.39;108951;1259;58161;-63
2024/01/08 09:21:50;;;;;;;13.60;4.80;;;;;;;-4.84;79.84;101808.50;108175;1260;1002230;-62
2024/01/08 09:24:37;;;;;;;11.20;3.80;;;;;;;-4.49;80.09;101811.55;108970;1259;72322;-62
2024/01/08 09:27:25;;;;;;;13.70;4.70;;;;;;;-4.51;79.98;101817.93;109033;1258;67772;-62
2024/01/08 09:30:13;;;;;;;12.50;4.90;;;;;;;-3.60;79.51;101811.42;108166;1259;1002428;-68
2024/01/08 09:33:06;;;;;;;10.10;4.10;;;;;;;-3.80;77.64;101807.60;108211;1259;1002238;-65
2024/01/08 09:35:54;;;;;;;11.70;4.80;;;;;;;-3.89;77.46;101805.27;109035;1258;60070;-65
2024/01/08 09:38:42;;;;;;;13.00;4.00;;;;;;;-3.97;77.99;101804.83;108995;1259;72589;-62
2024/01/08 09:41:30;;;;;;;10.60;4.60;;;;;;;-4.05;78.49;101809.97;109029;1259;66635;-66
2024/01/08 09:44:19;;;;;;;12.00;4.80;;;;;;;-3.98;78.29;101809.17;108992;1259;73613;-63
2024/01/08 09:47:07;;;;;;;11.40;4.60;;;;;;;-4.05;78.34;101808.05;109074;1259;58258;-62
2024/01/08 09:49:56;;;;;;;11.20;4.30;;;;;;;-3.87;78.55;101813.60;109090;1259;61167;-62
2024/01/08 09:52:45;;;;;;;10.30;4.30;;;;;;;-3.76;77.71;101811.64;107810;1258;1003101;-66
2024/01/08 09:55:35;;;;;;;10.80;3.90;;;;;;;-3.43;78.61;101815.38;108993;1259;67642;-64
2024/01/08 09:58:27;;;;;;;10.60;4.20;;;;;;;-2.97;76.17;101816.92;108979;1259;73680;-63
2024/01/08 10:01:15;;;;;;;13.40;4.30;;;;;;;-3.27;75.45;101826.10;109010;1259;59180;-63
2024/01/08 10:04:03;;;;;;;11.00;3.80;;;;;;;-3.50;76.09;101829.91;109041;1259;59049;-62
2024/01/08 10:07:12;;;;;;;11.50;4.30;;;;;;;-3.61;76.77;101833.63;108971;1259;74722;-62
2024/01/08 10:10:00;;;;;;;11.60;4.60;;;;;;;-3.41;77.32;101826.69;108166;1258;1002473;-61
2024/01/08 10:12:51;;;;;;;12.60;5.20;;;;;;;-1.55;76.51;101825.39;108896;1258;71138;-61
2024/01/08 10:15:38;;;;;;;14.70;5.00;;;;;;;-0.48;71.77;101814.56;108954;1259;58189;-62
2024/01/08 10:18:28;;;;;;;12.70;5.10;;;;;;;1.45;66.14;101801.20;109071;1259;58943;-63
2024/01/08 10:21:17;;;;;;;10.30;4.70;;;;;;;2.12;62.47;101800.98;108177;1259;1002536;-63
2024/01/08 10:24:09;;;;;;;12.00;4.70;;;;;;;2.66;57.74;101795.59;108294;1259;1002353;-61
2024/01/08 10:26:57;;;;;;;10.90;5.20;;;;;;;4.26;55.65;101787.92;108958;1260;72419;-64
2024/01/08 10:29:45;;;;;;;12.30;5.50;;;;;;;5.62;52.29;101783.09;108942;1259;58391;-62
2024/01/08 10:32:33;;;;;;;11.60;5.10;;;;;;;5.57;50.22;101778.13;109006;1259;61080;-62
2024/01/08 10:35:21;;;;;;;12.00;5.00;;;;;;;5.69;49.85;101777.79;108959;1259;73898;-64
2024/01/08 10:38:10;;;;;;;10.80;4.70;;;;;;;5.29;49.18;101780.53;109091;1259;68296;-62
2024/01/08 10:41:01;;;;;;;12.00;5.20;;;;;;;4.88;49.17;101784.45;109025;1259;71106;-62
2024/01/08 10:43:50;;;;;;;10.90;5.30;;;;;;;4.59;49.71;101788.55;108955;1258;58168;-62
2024/01/08 10:46:56;;;;;;;10.80;5.50;;;;;;;5.05;49.50;101791.20;108954;1259;60368;-63
2024/01/08 10:49:51;;;;;;;11.50;5.60;;;;;;;6.63;46.87;101790.51;108997;1259;72313;-61
2024/01/08 10:52:51;;;;;;;10.90;5.30;;;;;;;8.19;44.29;101783.21;108854;1260;67600;-61
2024/01/08 10:55:42;;;;;;;11.00;5.10;;;;;;;8.69;39.76;101781.70;108926;1260;73693;-64
2024/01/08 10:58:35;;;;;;;9.90;5.20;;;;;;;8.77;40.28;101775.01;108794;1261;58676;-62
2024/01/08 11:01:24;;;;;;;15.50;7.80;;;;;;;8.03;39.49;101782.42;108816;1260;60033;-62
2024/01/08 11:04:13;;;;;;;13.10;6.50;;;;;;;7.65;40.24;101782.86;108831;1260;74868;-62
2024/01/08 11:07:05;;;;;;;12.00;5.00;;;;;;;6.86;40.97;101782.16;108960;1260;67623;-62
2024/01/08 11:10:04;;;;;;;11.20;4.90;;;;;;;6.87;42.14;101789.38;108911;1260;73885;-60
2024/01/08 11:12:54;;;;;;;11.00;4.20;;;;;;;6.96;41.62;101787.63;108849;1260;58182;-63
2024/01/08 11:15:48;;;;;;;10.60;4.80;;;;;;;6.12;41.46;101789.31;108816;1260;61380;-61
2024/01/08 11:18:38;;;;;;;10.80;4.40;;;;;;;4.57;43.89;101794.93;108918;1260;73992;-62
2024/01/08 11:21:27;;;;;;;10.80;4.30;;;;;;;4.75;44.63;101789.37;108921;1260;66427;-63
2024/01/08 11:24:16;;;;;;;9.40;4.20;;;;;;;5.91;43.23;101794.03;108948;1260;72474;-62
2024/01/08 11:27:04;;;;;;;9.70;4.80;;;;;;;6.97;41.29;101790.61;108774;1260;58236;-62
2024/01/08 11:29:58;;;;;;;9.70;4.30;;;;;;;7.47;40.05;101794.14;108927;1260;59086;-64
2024/01/08 11:33:20;;;;;;;9.00;4.20;;;;;;;7.33;39.37;101798.36;108835;1263;73668;-62
2024/01/08 11:36:49;;;;;;;9.30;3.80;;;;;;;7.47;39.04;101800.48;108807;1260;67902;-61
2024/01/08 11:39:49;;;;;;;8.80;4.00;;;;;;;6.80;39.00;101805.80;108870;1260;73988;-67
2024/01/08 11:42:36;;;;;;;9.90;4.40;;;;;;;6.22;40.74;101806.86;108809;1260;58709;-62
2024/01/08 11:45:25;;;;;;;11.80;5.70;;;;;;;6.03;40.60;101807.79;108919;1260;61210;-63
2024/01/08 11:48:27;;;;;;;15.00;7.60;;;;;;;5.51;41.23;101803.14;108934;1260;73883;-63
2024/01/08 11:51:15;;;;;;;11.60;6.00;;;;;;;4.25;42.92;101805.36;108880;1260;67638;-63
2024/01/08 11:54:15;;;;;;;11.00;5.30;;;;;;;4.08;44.32;101806.11;108813;1260;72440;-64
2024/01/08 11:57:03;;;;;;;9.30;4.30;;;;;;;4.47;43.83;101809.25;108858;1260;58219;-63
2024/01/08 11:59:52;;;;;;;8.60;3.70;;;;;;;4.59;43.57;101809.29;108977;1260;60267;-64
2024/01/08 12:02:40;;;;;;;61.10;11.50;;;;;;;4.64;43.35;101807.05;108955;1260;73678;-65
2024/01/08 12:05:28;;;;;;;11.40;4.40;;;;;;;4.74;43.33;101801.36;108991;1259;66440;-62
2024/01/08 12:08:17;;;;;;;25.40;12.00;;;;;;;4.87;43.53;101800.15;108961;1260;73571;-65
2024/01/08 12:11:07;;;;;;;16.50;6.80;;;;;;;4.92;43.26;101797.73;108889;1257;58210;-63
2024/01/08 12:13:57;;;;;;;15.10;6.60;;;;;;;4.98;42.93;101798.11;108965;1257;59127;-62
2024/01/08 12:16:44;;;;;;;13.50;5.80;;;;;;;4.94;42.88;101795.23;108991;1259;72502;-65
2024/01/08 12:19:52;;;;;;;14.70;5.90;;;;;;;4.64;43.20;101789.13;109028;1257;68979;-63
2024/01/08 12:22:40;;;;;;;11.40;4.50;;;;;;;4.34;43.01;101787.23;108937;1258;73762;-63
2024/01/08 12:25:29;;;;;;;15.30;5.80;;;;;;;4.17;43.43;101783.08;109027;1258;58177;-66
2024/01/08 12:28:17;;;;;;;13.60;5.10;;;;;;;3.92;43.91;101789.79;109010;1257;61318;-63
2024/01/08 12:31:06;;;;;;;10.10;4.40;;;;;;;3.74;44.28;101795.44;109070;1258;73805;-68
2024/01/08 12:33:57;;;;;;;11.50;4.00;;;;;;;3.47;44.85;101790.94;108958;1257;66697;-63
2024/01/08 12:36:45;;;;;;;11.00;4.10;;;;;;;3.26;45.34;101791.17;109033;1258;72743;-64
2024/01/08 12:39:36;;;;;;;10.40;3.70;;;;;;;3.17;45.95;101795.55;108991;1257;58179;-65
2024/01/08 12:42:25;;;;;;;11.70;4.40;;;;;;;3.01;46.11;101798.13;109091;1259;58736;-67
2024/01/08 12:45:14;;;;;;;12.70;5.00;;;;;;;2.70;45.92;101807.78;108905;1259;72553;-61
2024/01/08 12:48:02;;;;;;;11.10;4.70;;;;;;;2.20;46.15;101809.83;109024;1259;67849;-66
2024/01/08 12:50:51;;;;;;;10.40;4.20;;;;;;;1.44;47.55;101807.67;109030;1259;70948;-65